General Aviation Weather

Text Reports

Enter one or more of the following location identifiers separated by a space:

Zip Code, Four-Character ICAO or Three-Character IATA airport codes.

METAR - Aviation Routine Weather Report
KRYV - Watertown, Wisconsin
Updated at 12:55 PM GMT on September 28, 2016 (7:55 AM CDT):
METAR KRYV 281255Z AUTO 33007KT 10SM OVC006 10/10 A2987 RMK AO2 P0001 T00980098
TAF - Terminal Area Forecast
KRYV - Watertown, Wisconsin
Updated at 12:55 PM GMT on September 28, 2016 (7:55 AM CDT):
No TAF is currently available for this location.
Decoded:
No decoded TAF is available.
PIREP - Pilot Weather Report
KRYV - Watertown, Wisconsin
Updated at 12:55 PM GMT on September 28, 2016 (7:55 AM CDT):
No PIREP is currently available for this location.
AIRMET - Airmens Meteorological Information
KRYV - Watertown, Wisconsin
Updated at 12:55 PM GMT on September 28, 2016 (7:55 AM CDT):
No AIRMET is currently available for this location.
SIGMET - Significant Meteorological Information
KRYV - Watertown, Wisconsin
Updated at 12:55 PM GMT on September 28, 2016 (7:55 AM CDT):
No SIGMET is currently available for this location.
NOTAM - Notice to Airmen
KRYV - Watertown, Wisconsin
Updated at 12:55 PM GMT on September 28, 2016 (7:55 AM CDT):
No NOTAM is currently available for this location.
Forecast Area
KRYV - Watertown, Wisconsin
Updated at 12:55 PM GMT on September 28, 2016 (7:55 AM CDT):
No NOTAM is currently available for this location.
Aviation Weather Maps